Tanana, Alaska
Current Conditions -  °F | °C
As of 10:52 AM on Thursday 23 Oct 2014 (Local Time) from PATA Reporting Station
Light Snow Light Snow  
Wind Chill: 18°   Ceiling: 2800
Heat Index: 25°   Visibility: 9mi
Dew Point: 16°   Wind: 6mph
Humidity: 69%   Direction: 90°E
Pressure: 29.87"   Gusts: NA
Location:  65.18°N, 152.08°W
Report Text: PATA 231852Z 09005KT 9SM -SN OVC028 M04/M09 A2987 RMK AO2 SNB01 SLP120 T10391089
Loading
Personal Weather Stations






























Interactive Weather Map
Tropical Storm Tracking
New forecast layout! Learn more

10-Day Weather Forecast

Advertisements
Track Severe Weather on mobile